Terminal Aerodrome Forecast
Issued by NWS

Home | Current Version | Previous Version | Text Only | Print | Product List | Glossary On
Versions: 1 2 3 4 5 6 7 8 9 10 11 12 13 14 15 16 17 18 19 20 21 22 23 24 25
000
FTUS43 KDLH 201000 AAA
TAFHIB
TAF AMD
KHIB 201004Z 2010/2106 30010G18KT P6SM BKN012
     FM201800 29008KT P6SM SCT035
     FM202200 28008KT P6SM -TSRA BKN035CB
     FM210200 31005KT P6SM -RA BKN025 OVC040=

USA.gov is the U.S. government's official web portal to all federal, state and local government web resources and services.